createdAt,value
2022-10-28T00:01:11.089Z,13.57
2022-10-28T00:03:40.176Z,19.13
2022-10-28T00:06:10.301Z,17.30
2022-10-28T00:08:37.131Z,18.08
2022-10-28T00:11:08.580Z,23.15
2022-10-28T00:13:36.581Z,16.95
2022-10-28T00:16:09.312Z,22.13
2022-10-28T00:18:36.690Z,23.90
2022-10-28T00:21:07.058Z,21.73
2022-10-28T00:26:12.530Z,18.15
2022-10-28T00:28:44.138Z,18.00
2022-10-28T00:31:12.662Z,23.50
2022-10-28T00:33:39.554Z,16.67
2022-10-28T00:36:13.006Z,23.23
2022-10-28T00:38:41.152Z,26.98
2022-10-28T00:41:09.003Z,14.45
2022-10-28T00:43:39.187Z,26.38
2022-10-28T00:46:15.064Z,22.25
2022-10-28T00:48:45.403Z,28.20
2022-10-28T00:51:13.426Z,22.05
2022-10-28T00:53:43.389Z,31.95
2022-10-28T00:56:11.381Z,33.03
2022-10-28T00:58:38.976Z,24.10
2022-10-28T01:05:35.955Z,40.05
2022-10-28T01:08:04.560Z,31.67
2022-10-28T01:11:10.087Z,27.27
2022-10-28T01:13:42.740Z,29.10
2022-10-28T01:16:28.142Z,26.65
2022-10-28T01:19:19.821Z,32.72
2022-10-28T01:22:05.148Z,28.05
2022-10-28T01:24:57.710Z,24.50
2022-10-28T01:27:45.741Z,26.05
2022-10-28T01:30:25.414Z,29.50
2022-10-28T01:33:21.569Z,28.90
2022-10-28T01:36:04.761Z,26.42
2022-10-28T01:38:43.284Z,25.50
2022-10-28T01:41:36.133Z,27.05
2022-10-28T01:44:27.396Z,28.90
2022-10-28T01:46:54.164Z,21.90
2022-10-28T01:49:59.879Z,26.08
2022-10-28T01:52:29.978Z,23.38
2022-10-28T01:55:28.047Z,21.42
2022-10-28T01:57:59.147Z,23.75
2022-10-28T02:00:26.762Z,29.92
2022-10-28T02:02:55.647Z,28.77
2022-10-28T02:05:40.948Z,26.50
2022-10-28T02:08:19.224Z,19.75
2022-10-28T02:11:32.570Z,29.63
2022-10-28T02:14:24.207Z,27.35
2022-10-28T02:16:54.726Z,25.98
2022-10-28T02:19:30.730Z,22.55
2022-10-28T02:22:08.870Z,25.75
2022-10-28T02:25:14.901Z,30.10
2022-10-28T02:28:05.901Z,17.00
2022-10-28T02:30:44.623Z,24.35
2022-10-28T02:33:16.560Z,28.00
2022-10-28T02:35:48.964Z,25.05
2022-10-28T02:38:23.016Z,22.45
2022-10-28T02:40:54.471Z,25.00
2022-10-28T02:43:24.998Z,36.30
2022-10-28T02:45:57.007Z,29.83
2022-10-28T02:48:44.062Z,29.20
2022-10-28T02:51:14.947Z,27.35
2022-10-28T02:54:10.336Z,35.13
2022-10-28T02:57:01.023Z,33.08
2022-10-28T02:59:29.074Z,32.90
2022-10-28T03:01:56.235Z,32.97
2022-10-28T03:04:23.147Z,28.17
2022-10-28T03:06:50.003Z,27.67
2022-10-28T03:09:16.938Z,23.25
2022-10-28T03:11:43.796Z,22.60
2022-10-28T03:14:13.205Z,28.80
2022-10-28T03:16:42.249Z,26.27
2022-10-28T03:21:40.925Z,23.85
2022-10-28T03:24:07.803Z,30.80
2022-10-28T03:26:34.631Z,27.63
2022-10-28T03:29:01.475Z,27.05
2022-10-28T03:31:28.426Z,22.92
2022-10-28T03:33:55.318Z,23.95
2022-10-28T03:36:22.140Z,19.13
2022-10-28T03:38:49.040Z,22.48
2022-10-28T03:41:15.988Z,25.15
2022-10-28T03:43:42.850Z,22.08
2022-10-28T03:46:09.716Z,21.02
2022-10-28T03:48:36.650Z,22.00
2022-10-28T03:51:03.731Z,26.77
2022-10-28T03:53:31.523Z,27.25
2022-10-28T03:56:00.606Z,29.65
2022-10-28T03:58:28.066Z,36.17
2022-10-28T04:00:56.119Z,34.45
2022-10-28T04:03:24.371Z,31.00
2022-10-28T04:05:51.222Z,37.88
2022-10-28T04:08:19.108Z,34.45
2022-10-28T04:10:47.662Z,43.22
2022-10-28T04:13:15.768Z,34.00
2022-10-28T04:15:42.850Z,36.58
2022-10-28T04:18:09.791Z,45.53
2022-10-28T04:20:36.928Z,43.25
2022-10-28T04:23:04.164Z,45.78
2022-10-28T04:25:31.244Z,49.97
2022-10-28T04:27:58.152Z,41.75
2022-10-28T04:30:25.261Z,36.40
2022-10-28T04:32:52.206Z,40.92
2022-10-28T04:35:19.064Z,46.40
2022-10-28T04:37:45.947Z,41.72
2022-10-28T04:40:13.203Z,37.85
2022-10-28T04:42:40.104Z,43.70
2022-10-28T04:45:07.905Z,36.83
2022-10-28T04:47:35.010Z,38.83
2022-10-28T04:50:02.247Z,37.75
2022-10-28T04:52:29.211Z,36.58
2022-10-28T04:54:56.072Z,33.10
2022-10-28T04:57:22.893Z,35.25
2022-10-28T04:59:49.761Z,33.17
2022-10-28T05:02:16.656Z,32.65
2022-10-28T05:04:43.554Z,35.65
2022-10-28T05:07:10.497Z,34.28
2022-10-28T05:09:37.331Z,31.15
2022-10-28T05:12:04.378Z,29.63
2022-10-28T05:14:31.250Z,32.88
2022-10-28T05:16:58.106Z,39.78
2022-10-28T05:19:24.994Z,31.50
2022-10-28T05:21:51.824Z,31.67
2022-10-28T05:24:18.647Z,25.48
2022-10-28T05:26:45.464Z,34.83
2022-10-28T05:29:12.306Z,29.10
2022-10-28T05:31:39.115Z,30.83
2022-10-28T05:34:05.974Z,34.75
2022-10-28T05:36:32.913Z,29.98
2022-10-28T05:38:59.753Z,23.40
2022-10-28T05:41:26.655Z,23.30
2022-10-28T05:43:53.588Z,27.67
2022-10-28T05:46:22.299Z,29.27
2022-10-28T05:48:49.628Z,26.58
2022-10-28T05:51:16.537Z,24.67
2022-10-28T05:53:44.386Z,21.52
2022-10-28T05:56:11.537Z,23.63
2022-10-28T05:58:38.455Z,23.10
2022-10-28T06:01:09.000Z,20.73
2022-10-28T06:03:36.071Z,21.58
2022-10-28T06:06:03.035Z,24.55
2022-10-28T06:08:30.664Z,20.17
2022-10-28T06:10:55.997Z,18.85
2022-10-28T06:13:23.108Z,22.00
2022-10-28T06:15:54.408Z,17.15
2022-10-28T06:18:22.170Z,46.33
2022-10-28T06:20:59.103Z,30.90
2022-10-28T06:23:27.622Z,25.55
2022-10-28T06:25:59.372Z,24.98
2022-10-28T06:28:26.748Z,22.58
2022-10-28T06:30:53.694Z,26.83
2022-10-28T06:33:20.537Z,21.70
2022-10-28T06:35:47.387Z,22.33
2022-10-28T06:38:14.231Z,18.65
2022-10-28T06:40:41.069Z,17.88
2022-10-28T06:43:09.150Z,23.17
2022-10-28T06:45:36.014Z,19.95
2022-10-28T06:48:06.093Z,15.30
2022-10-28T06:50:34.962Z,19.50
2022-10-28T06:53:02.139Z,14.60
2022-10-28T06:55:29.311Z,11.77
2022-10-28T06:58:00.551Z,12.88
2022-10-28T07:00:28.212Z,9.90
2022-10-28T07:02:55.690Z,11.20
2022-10-28T07:05:24.232Z,13.30
2022-10-28T07:07:51.282Z,11.05
2022-10-28T07:10:18.325Z,14.63
2022-10-28T07:12:45.240Z,10.82
2022-10-28T07:15:12.160Z,13.68
2022-10-28T07:17:39.011Z,11.85
2022-10-28T07:20:06.376Z,10.80
2022-10-28T07:22:33.274Z,10.43
2022-10-28T07:25:00.099Z,12.38
2022-10-28T07:27:27.097Z,13.32
2022-10-28T07:29:53.893Z,10.95
2022-10-28T07:32:20.765Z,12.38
2022-10-28T07:34:47.731Z,13.48
2022-10-28T07:37:14.567Z,14.02
2022-10-28T07:39:41.463Z,14.85
2022-10-28T07:42:08.322Z,11.27
2022-10-28T07:44:35.162Z,15.38
2022-10-28T07:47:02.053Z,14.68
2022-10-28T07:49:28.873Z,17.52
2022-10-28T07:51:55.984Z,18.38
2022-10-28T07:54:23.149Z,14.77
2022-10-28T07:56:50.011Z,19.85
2022-10-28T07:59:16.874Z,17.65
2022-10-28T08:01:43.812Z,19.08
2022-10-28T08:04:10.742Z,18.23
2022-10-28T08:06:37.637Z,20.83
2022-10-28T08:09:04.564Z,18.60
2022-10-28T08:11:31.482Z,18.88
2022-10-28T08:13:58.385Z,17.15
2022-10-28T08:16:25.345Z,18.60
2022-10-28T08:18:53.186Z,20.83
2022-10-28T08:21:21.119Z,17.35
2022-10-28T08:23:48.048Z,18.38
2022-10-28T08:26:16.416Z,20.92
2022-10-28T08:28:43.426Z,17.40
2022-10-28T08:31:12.295Z,22.33
2022-10-28T08:33:42.357Z,22.88
2022-10-28T08:36:14.986Z,27.85
2022-10-28T08:38:45.830Z,28.45
2022-10-28T08:41:32.768Z,31.00
2022-10-28T08:44:18.169Z,37.95
2022-10-28T08:47:26.131Z,30.98
2022-10-28T08:49:59.370Z,38.92
2022-10-28T08:52:41.155Z,42.17
2022-10-28T08:55:13.533Z,44.97
2022-10-28T08:57:52.524Z,47.13
2022-10-28T09:00:26.481Z,43.22
2022-10-28T09:03:06.749Z,44.42
2022-10-28T09:05:34.246Z,47.88
2022-10-28T09:08:02.483Z,49.60
2022-10-28T09:10:39.491Z,42.72
2022-10-28T09:13:21.059Z,40.70
2022-10-28T09:15:57.247Z,48.78
2022-10-28T09:18:41.291Z,44.58
2022-10-28T09:21:18.283Z,37.38
2022-10-28T09:23:57.772Z,39.30
2022-10-28T09:27:00.231Z,42.50
2022-10-28T09:29:44.254Z,39.53
2022-10-28T09:32:34.623Z,39.03
2022-10-28T09:35:17.487Z,36.28
2022-10-28T09:37:56.780Z,34.55
2022-10-28T09:40:30.559Z,40.70
2022-10-28T09:43:08.267Z,30.75
2022-10-28T09:45:40.404Z,47.85
2022-10-28T09:48:23.025Z,31.13
2022-10-28T09:50:52.852Z,24.83
2022-10-28T09:53:44.691Z,26.33
2022-10-28T09:56:11.805Z,25.48
2022-10-28T09:58:43.507Z,30.42
2022-10-28T10:01:10.531Z,27.48
2022-10-28T10:03:40.005Z,26.95
2022-10-28T10:06:14.049Z,30.27
2022-10-28T10:08:42.115Z,26.17
2022-10-28T10:11:27.802Z,29.77
2022-10-28T10:13:57.937Z,27.95
2022-10-28T10:16:49.182Z,30.38
2022-10-28T10:19:16.036Z,39.63
2022-10-28T10:21:54.357Z,28.35
2022-10-28T10:24:30.937Z,31.75
2022-10-28T10:27:04.703Z,29.00
2022-10-28T10:29:34.466Z,29.58
2022-10-28T10:32:19.575Z,27.60
2022-10-28T10:34:56.362Z,32.40
2022-10-28T10:37:24.176Z,32.35
2022-10-28T10:40:38.465Z,29.85
2022-10-28T10:43:17.533Z,27.30
2022-10-28T10:45:59.262Z,33.88
2022-10-28T10:48:26.978Z,33.30
2022-10-28T10:50:54.670Z,43.83
2022-10-28T10:53:31.556Z,31.58
2022-10-28T10:56:01.538Z,36.50
2022-10-28T10:58:32.476Z,32.03
2022-10-28T11:01:02.828Z,30.10
2022-10-28T11:06:24.526Z,35.03
2022-10-28T11:09:00.586Z,31.85
2022-10-28T11:11:37.257Z,31.65
2022-10-28T11:14:26.545Z,29.85
2022-10-28T11:16:54.636Z,29.67
2022-10-28T11:19:33.249Z,36.97
2022-10-28T11:22:42.077Z,39.58
2022-10-28T11:25:36.151Z,38.95
2022-10-28T11:28:19.525Z,40.33
2022-10-28T11:30:51.378Z,42.35
2022-10-28T11:33:30.177Z,41.67
2022-10-28T11:36:10.981Z,42.67
2022-10-28T11:41:12.859Z,45.33
2022-10-28T11:43:54.826Z,47.22
2022-10-28T11:46:33.868Z,45.90
2022-10-28T11:49:03.553Z,44.03
2022-10-28T11:52:02.808Z,39.83
2022-10-28T11:54:43.140Z,46.45
2022-10-28T11:57:30.208Z,42.25
2022-10-28T12:00:44.794Z,35.85
2022-10-28T12:03:29.799Z,44.22
2022-10-28T12:06:07.188Z,38.42
2022-10-28T12:09:13.076Z,41.72
2022-10-28T12:12:07.595Z,42.65
2022-10-28T12:14:37.384Z,39.72
2022-10-28T12:17:14.103Z,40.03
2022-10-28T12:19:56.920Z,36.10
2022-10-28T12:22:40.257Z,38.97
2022-10-28T12:25:16.977Z,40.08
2022-10-28T12:27:47.766Z,43.55
2022-10-28T12:30:27.771Z,39.30
2022-10-28T12:33:07.013Z,43.70
2022-10-28T12:36:09.984Z,44.97
2022-10-28T12:38:55.980Z,44.75
2022-10-28T12:41:55.196Z,39.15
2022-10-28T12:44:24.369Z,41.35
2022-10-28T12:47:05.511Z,37.10
2022-10-28T12:49:53.719Z,38.65
2022-10-28T12:52:33.266Z,40.60
2022-10-28T12:55:18.485Z,43.23
2022-10-28T12:57:51.894Z,40.08
2022-10-28T13:00:24.299Z,40.65
2022-10-28T13:03:04.214Z,37.40
2022-10-28T13:05:42.385Z,36.40
2022-10-28T13:08:28.193Z,33.00
2022-10-28T13:11:19.264Z,43.08
2022-10-28T13:14:21.493Z,31.88
2022-10-28T13:16:58.148Z,34.03
2022-10-28T13:19:31.290Z,38.55
2022-10-28T13:22:07.045Z,43.47
2022-10-28T13:24:45.984Z,39.10
2022-10-28T13:27:14.185Z,40.65
2022-10-28T13:29:43.302Z,43.47
2022-10-28T13:32:32.661Z,37.70
2022-10-28T13:35:11.479Z,34.05
2022-10-28T13:37:39.667Z,33.25
2022-10-28T13:40:07.262Z,40.00
2022-10-28T13:42:42.957Z,42.90
2022-10-28T13:45:48.501Z,42.30
2022-10-28T13:48:39.658Z,41.58
2022-10-28T13:51:09.299Z,39.80
2022-10-28T13:53:56.921Z,39.50
2022-10-28T13:56:37.688Z,45.97
2022-10-28T13:59:22.546Z,40.40
2022-10-28T14:02:07.327Z,40.47
2022-10-28T14:04:42.401Z,51.10
2022-10-28T14:07:12.630Z,45.97
2022-10-28T14:09:41.755Z,48.45
2022-10-28T14:12:20.569Z,42.25
2022-10-28T14:14:56.348Z,37.17
2022-10-28T14:17:34.729Z,41.53
2022-10-28T14:20:04.054Z,35.50
2022-10-28T14:22:34.833Z,39.42
2022-10-28T14:25:02.335Z,44.42
2022-10-28T14:27:40.769Z,38.97
2022-10-28T14:30:16.235Z,37.75
2022-10-28T14:32:50.368Z,36.72
2022-10-28T14:35:41.601Z,26.90
2022-10-28T14:38:30.088Z,26.70
2022-10-28T14:41:02.955Z,25.67
2022-10-28T14:43:32.598Z,25.60
2022-10-28T14:45:59.375Z,25.95
2022-10-28T14:48:47.147Z,28.00
2022-10-28T14:51:39.193Z,28.75
2022-10-28T14:54:13.568Z,32.83
2022-10-28T14:56:41.374Z,25.55
2022-10-28T14:59:42.292Z,30.42
2022-10-28T15:02:29.891Z,29.33
2022-10-28T15:05:17.247Z,25.10
2022-10-28T15:07:44.593Z,30.63
2022-10-28T15:10:28.090Z,20.88
2022-10-28T15:12:57.315Z,28.13
2022-10-28T15:15:33.592Z,23.45
2022-10-28T15:18:00.882Z,23.05
2022-10-28T15:20:32.215Z,24.15
2022-10-28T15:23:21.532Z,22.40
2022-10-28T15:26:14.824Z,21.73
2022-10-28T15:28:43.005Z,20.00
2022-10-28T15:31:09.886Z,23.85
2022-10-28T15:33:39.165Z,20.20
2022-10-28T15:36:26.241Z,21.23
2022-10-28T15:39:07.324Z,18.63
2022-10-28T15:41:41.597Z,19.88
2022-10-28T15:44:22.889Z,25.33
2022-10-28T15:46:50.306Z,22.63
2022-10-28T15:49:38.621Z,23.45
2022-10-28T15:52:33.197Z,23.73
2022-10-28T15:55:02.157Z,21.27
2022-10-28T15:57:31.711Z,25.08
2022-10-28T16:00:46.961Z,22.80
2022-10-28T16:03:26.634Z,25.88
2022-10-28T16:05:58.820Z,20.92
2022-10-28T16:08:30.518Z,20.65
2022-10-28T16:11:06.868Z,17.88
2022-10-28T16:13:38.616Z,23.52
2022-10-28T16:16:14.717Z,20.73
2022-10-28T16:18:48.058Z,18.40
2022-10-28T16:21:24.814Z,17.55
2022-10-28T16:23:56.412Z,17.73
2022-10-28T16:26:23.670Z,18.02
2022-10-28T16:28:50.499Z,19.02
2022-10-28T16:31:19.170Z,15.70
2022-10-28T16:33:46.352Z,16.30
2022-10-28T16:36:13.379Z,14.32
2022-10-28T16:38:40.574Z,17.83
2022-10-28T16:41:16.191Z,14.98
2022-10-28T16:43:43.467Z,16.40
2022-10-28T16:46:12.630Z,16.95
2022-10-28T16:48:40.026Z,14.90
2022-10-28T16:51:12.884Z,18.25
2022-10-28T16:53:40.964Z,13.63
2022-10-28T16:56:13.412Z,15.90
2022-10-28T16:58:44.944Z,19.20
2022-10-28T17:01:14.962Z,13.60
2022-10-28T17:03:41.942Z,14.38
2022-10-28T17:06:10.547Z,12.07
2022-10-28T17:09:01.234Z,12.98
2022-10-28T17:11:24.390Z,14.10
2022-10-28T17:13:51.278Z,11.85
2022-10-28T17:16:18.121Z,16.10
2022-10-28T17:18:46.544Z,14.48
2022-10-28T17:21:13.390Z,11.40
2022-10-28T17:23:40.504Z,12.88
2022-10-28T17:26:07.401Z,11.43
2022-10-28T17:28:34.239Z,12.32
2022-10-28T17:31:05.640Z,11.63
2022-10-28T17:33:32.886Z,13.23
2022-10-28T17:36:05.197Z,10.45
2022-10-28T17:38:32.208Z,11.77
2022-10-28T17:40:59.122Z,10.43
2022-10-28T17:43:26.380Z,9.35
2022-10-28T17:45:54.998Z,9.88
2022-10-28T17:48:21.818Z,9.75
2022-10-28T17:50:55.290Z,8.48
2022-10-28T17:53:22.297Z,10.80
2022-10-28T17:55:59.101Z,7.95
2022-10-28T17:58:26.011Z,8.93
2022-10-28T18:01:00.439Z,12.35
2022-10-28T18:03:28.301Z,9.80
2022-10-28T18:05:55.430Z,6.57
2022-10-28T18:08:22.988Z,8.45
2022-10-28T18:10:54.982Z,6.85
2022-10-28T18:13:27.433Z,7.90
2022-10-28T18:15:54.525Z,6.90
2022-10-28T18:18:21.383Z,8.85
2022-10-28T18:20:54.828Z,8.65
2022-10-28T18:23:22.588Z,8.93
2022-10-28T18:26:04.196Z,9.73
2022-10-28T18:28:31.835Z,8.43
2022-10-28T18:31:19.093Z,6.80
2022-10-28T18:33:47.237Z,5.45
2022-10-28T18:36:22.630Z,5.55
2022-10-28T18:38:50.129Z,11.02
2022-10-28T18:41:22.377Z,6.30
2022-10-28T18:43:56.447Z,6.50
2022-10-28T18:46:23.803Z,7.07
2022-10-28T18:48:50.680Z,6.40
2022-10-28T18:51:18.021Z,8.32
2022-10-28T18:53:47.295Z,8.30
2022-10-28T18:56:16.631Z,5.73
2022-10-28T18:58:44.133Z,4.38
2022-10-28T19:01:16.848Z,5.40
2022-10-28T19:03:44.691Z,6.05
2022-10-28T19:06:14.221Z,5.18
2022-10-28T19:08:41.584Z,4.17
2022-10-28T19:11:11.011Z,8.68
2022-10-28T19:13:40.265Z,7.37
2022-10-28T19:16:08.426Z,7.78
2022-10-28T19:18:37.511Z,5.13
2022-10-28T19:21:12.018Z,3.50
2022-10-28T19:23:39.538Z,7.57
2022-10-28T19:26:06.912Z,3.35
2022-10-28T19:28:41.227Z,6.88
2022-10-28T19:31:11.644Z,3.53
2022-10-28T19:36:10.125Z,6.32
2022-10-28T19:38:37.952Z,10.13
2022-10-28T19:41:10.853Z,4.57
2022-10-28T19:43:37.882Z,6.75
2022-10-28T19:46:13.296Z,5.22
2022-10-28T19:48:42.526Z,13.93
2022-10-28T19:51:13.072Z,5.88
2022-10-28T19:53:39.976Z,3.75
2022-10-28T19:56:07.165Z,4.53
2022-10-28T19:58:34.823Z,3.30
2022-10-28T20:01:05.392Z,5.15
2022-10-28T20:03:35.614Z,3.45
2022-10-28T20:06:08.840Z,4.13
2022-10-28T20:08:38.331Z,3.10
2022-10-28T20:11:10.075Z,3.05
2022-10-28T20:13:37.332Z,7.38
2022-10-28T20:16:07.007Z,5.40
2022-10-28T20:18:34.707Z,5.10
2022-10-28T20:21:10.590Z,7.35
2022-10-28T20:23:38.612Z,4.50
2022-10-28T20:26:06.890Z,6.68
2022-10-28T20:28:34.307Z,4.28
2022-10-28T20:31:07.975Z,4.30
2022-10-28T20:33:37.270Z,8.00
2022-10-28T20:36:05.014Z,5.30
2022-10-28T20:38:32.297Z,7.63
2022-10-28T20:41:01.072Z,5.78
2022-10-28T20:43:29.349Z,6.22
2022-10-28T20:45:59.428Z,5.13
2022-10-28T20:48:28.010Z,12.82
2022-10-28T20:51:00.720Z,6.03
2022-10-28T20:53:32.827Z,7.05
2022-10-28T20:56:00.328Z,7.32
2022-10-28T20:58:32.729Z,8.73
2022-10-28T21:01:08.425Z,5.35
2022-10-28T21:03:35.328Z,4.22
2022-10-28T21:06:03.237Z,5.45
2022-10-28T21:08:30.184Z,4.45
2022-10-28T21:11:00.646Z,4.93
2022-10-28T21:15:57.479Z,7.07
2022-10-28T21:18:25.317Z,4.28
2022-10-28T21:20:57.173Z,7.28
2022-10-28T21:23:24.838Z,4.70
2022-10-28T21:25:56.372Z,7.07
2022-10-28T21:28:24.236Z,6.93
2022-10-28T21:30:51.145Z,7.13
2022-10-28T21:33:18.987Z,3.65
2022-10-28T21:35:55.475Z,6.13
2022-10-28T21:38:22.397Z,5.10
2022-10-28T21:40:49.224Z,4.70
2022-10-28T21:43:16.493Z,6.97
2022-10-28T21:45:43.298Z,11.10
2022-10-28T21:48:10.197Z,8.43
2022-10-28T21:50:37.030Z,9.57
2022-10-28T21:53:04.283Z,6.85
2022-10-28T21:55:45.992Z,3.53
2022-10-28T21:58:15.210Z,12.95
2022-10-28T22:00:43.136Z,4.30
2022-10-28T22:03:10.540Z,8.98
2022-10-28T22:05:37.634Z,3.83
2022-10-28T22:08:05.259Z,5.22
2022-10-28T22:10:32.386Z,6.75
2022-10-28T22:12:59.223Z,3.45
2022-10-28T22:15:26.052Z,6.80
2022-10-28T22:17:53.144Z,5.97
2022-10-28T22:20:20.243Z,5.93
2022-10-28T22:22:47.136Z,8.80
2022-10-28T22:25:14.092Z,5.00
2022-10-28T22:27:40.987Z,5.05
2022-10-28T22:30:08.435Z,5.63
2022-10-28T22:32:35.281Z,6.28
2022-10-28T22:35:02.279Z,7.82
2022-10-28T22:37:29.184Z,4.53
2022-10-28T22:39:56.021Z,6.25
2022-10-28T22:42:24.127Z,4.25
2022-10-28T22:44:50.990Z,6.93
2022-10-28T22:47:17.826Z,5.70
2022-10-28T22:49:44.726Z,4.05
2022-10-28T22:52:11.535Z,9.02
2022-10-28T22:54:38.357Z,8.82
2022-10-28T22:57:05.155Z,4.13
2022-10-28T22:59:31.962Z,4.40
2022-10-28T23:01:58.898Z,3.05
2022-10-28T23:04:25.891Z,6.20
2022-10-28T23:06:52.750Z,4.90
2022-10-28T23:09:20.561Z,5.35
2022-10-28T23:11:47.377Z,4.32
2022-10-28T23:14:14.249Z,4.00
2022-10-28T23:16:41.113Z,5.45
2022-10-28T23:19:07.966Z,8.13
2022-10-28T23:21:34.884Z,10.63
2022-10-28T23:24:01.928Z,5.60
2022-10-28T23:26:29.793Z,7.18
2022-10-28T23:28:59.760Z,7.88
2022-10-28T23:31:27.396Z,8.45
2022-10-28T23:33:55.237Z,8.85
2022-10-28T23:36:22.432Z,6.55
2022-10-28T23:38:49.333Z,7.38
2022-10-28T23:41:18.767Z,7.00
2022-10-28T23:43:46.642Z,9.30
2022-10-28T23:46:13.458Z,13.68
2022-10-28T23:48:40.406Z,7.18
2022-10-28T23:51:07.265Z,11.10
2022-10-28T23:53:34.610Z,9.02
2022-10-28T23:56:01.506Z,12.55
2022-10-28T23:58:28.434Z,8.57
